sensor_id;sensor_type;location;lat;lon;timestamp;pressure;altitude;pressure_sealevel;temperature;humidity
77799;BME280;66989;50.426;15.352;2023-03-24T00:01:20;97577.31;;;11.50;79.46
77799;BME280;66989;50.426;15.352;2023-03-24T00:03:45;97576.78;;;11.47;79.69
77799;BME280;66989;50.426;15.352;2023-03-24T00:06:13;97568.16;;;11.45;79.63
77799;BME280;66989;50.426;15.352;2023-03-24T00:08:39;97569.94;;;11.44;80.04
77799;BME280;66989;50.426;15.352;2023-03-24T00:11:09;97570.94;;;11.43;80.39
77799;BME280;66989;50.426;15.352;2023-03-24T00:13:37;97566.91;;;11.49;81.05
77799;BME280;66989;50.426;15.352;2023-03-24T00:16:10;97564.53;;;11.55;79.89
77799;BME280;66989;50.426;15.352;2023-03-24T00:18:37;97563.84;;;11.44;80.93
77799;BME280;66989;50.426;15.352;2023-03-24T00:21:04;97565.81;;;11.42;81.24
77799;BME280;66989;50.426;15.352;2023-03-24T00:23:31;97558.00;;;11.40;81.35
77799;BME280;66989;50.426;15.352;2023-03-24T00:26:03;97547.84;;;11.35;81.31
77799;BME280;66989;50.426;15.352;2023-03-24T00:28:33;97554.25;;;11.33;81.46
77799;BME280;66989;50.426;15.352;2023-03-24T00:31:02;97548.16;;;11.32;81.27
77799;BME280;66989;50.426;15.352;2023-03-24T00:33:29;97543.13;;;11.29;80.92
77799;BME280;66989;50.426;15.352;2023-03-24T00:35:58;97540.63;;;11.28;81.17
77799;BME280;66989;50.426;15.352;2023-03-24T00:38:24;97541.47;;;11.28;80.96
77799;BME280;66989;50.426;15.352;2023-03-24T00:40:51;97544.25;;;11.27;81.04
77799;BME280;66989;50.426;15.352;2023-03-24T00:43:16;97544.53;;;11.24;81.02
77799;BME280;66989;50.426;15.352;2023-03-24T00:45:42;97531.63;;;11.21;81.43
77799;BME280;66989;50.426;15.352;2023-03-24T00:48:11;97533.69;;;11.27;81.16
77799;BME280;66989;50.426;15.352;2023-03-24T00:50:36;97528.44;;;11.36;80.40
77799;BME280;66989;50.426;15.352;2023-03-24T00:53:02;97523.84;;;11.38;80.62
77799;BME280;66989;50.426;15.352;2023-03-24T00:55:29;97521.19;;;11.38;80.07
77799;BME280;66989;50.426;15.352;2023-03-24T00:57:56;97518.41;;;11.40;80.58
77799;BME280;66989;50.426;15.352;2023-03-24T01:00:24;97521.88;;;11.40;80.65
77799;BME280;66989;50.426;15.352;2023-03-24T01:02:51;97514.81;;;11.41;80.69
77799;BME280;66989;50.426;15.352;2023-03-24T01:05:19;97508.00;;;11.38;80.69
77799;BME280;66989;50.426;15.352;2023-03-24T01:07:44;97510.06;;;11.35;81.17
77799;BME280;66989;50.426;15.352;2023-03-24T01:10:17;97521.06;;;11.21;82.36
77799;BME280;66989;50.426;15.352;2023-03-24T01:12:43;97509.25;;;11.15;82.66
77799;BME280;66989;50.426;15.352;2023-03-24T01:15:18;97503.41;;;11.11;82.64
77799;BME280;66989;50.426;15.352;2023-03-24T01:17:44;97510.63;;;11.09;82.62
77799;BME280;66989;50.426;15.352;2023-03-24T01:20:13;97506.47;;;11.07;83.10
77799;BME280;66989;50.426;15.352;2023-03-24T01:22:40;97498.69;;;11.05;83.27
77799;BME280;66989;50.426;15.352;2023-03-24T01:25:14;97501.59;;;11.02;83.09
77799;BME280;66989;50.426;15.352;2023-03-24T01:27:42;97508.97;;;11.18;82.53
77799;BME280;66989;50.426;15.352;2023-03-24T01:30:10;97500.06;;;11.09;83.36
77799;BME280;66989;50.426;15.352;2023-03-24T01:32:37;97504.50;;;10.99;84.26
77799;BME280;66989;50.426;15.352;2023-03-24T01:35:03;97503.13;;;10.95;83.89
77799;BME280;66989;50.426;15.352;2023-03-24T01:37:28;97497.28;;;10.92;84.49
77799;BME280;66989;50.426;15.352;2023-03-24T01:39:54;97494.91;;;10.88;84.46
77799;BME280;66989;50.426;15.352;2023-03-24T01:42:23;97494.22;;;10.86;84.57
77799;BME280;66989;50.426;15.352;2023-03-24T01:44:50;97496.16;;;10.84;84.69
77799;BME280;66989;50.426;15.352;2023-03-24T01:47:18;97494.63;;;10.82;85.25
77799;BME280;66989;50.426;15.352;2023-03-24T01:49:51;97494.47;;;10.83;85.10
77799;BME280;66989;50.426;15.352;2023-03-24T01:52:25;97482.41;;;10.81;85.32
77799;BME280;66989;50.426;15.352;2023-03-24T01:55:13;97482.56;;;10.79;84.96
77799;BME280;66989;50.426;15.352;2023-03-24T01:57:47;97481.72;;;10.79;84.93
77799;BME280;66989;50.426;15.352;2023-03-24T02:00:17;97473.81;;;10.79;84.83
77799;BME280;66989;50.426;15.352;2023-03-24T02:02:48;97475.59;;;10.78;85.32
77799;BME280;66989;50.426;15.352;2023-03-24T02:05:22;97478.38;;;10.77;85.59
77799;BME280;66989;50.426;15.352;2023-03-24T02:10:23;97482.00;;;10.76;86.76
77799;BME280;66989;50.426;15.352;2023-03-24T02:12:50;97474.22;;;10.74;86.95
77799;BME280;66989;50.426;15.352;2023-03-24T02:15:17;97475.31;;;10.72;86.43
77799;BME280;66989;50.426;15.352;2023-03-24T02:20:54;97475.59;;;10.69;86.44
77799;BME280;66989;50.426;15.352;2023-03-24T02:37:32;97448.56;;;10.86;86.38
77799;BME280;66989;50.426;15.352;2023-03-24T02:43:15;97453.38;;;10.61;87.97
77799;BME280;66989;50.426;15.352;2023-03-24T02:48:36;97446.69;;;10.57;87.84
77799;BME280;66989;50.426;15.352;2023-03-24T02:51:39;97446.84;;;10.56;88.42
77799;BME280;66989;50.426;15.352;2023-03-24T02:54:15;97436.59;;;10.53;88.16
77799;BME280;66989;50.426;15.352;2023-03-24T02:57:04;97434.38;;;10.48;88.52
77799;BME280;66989;50.426;15.352;2023-03-24T03:00:38;97426.47;;;10.48;88.78
77799;BME280;66989;50.426;15.352;2023-03-24T03:02:40;97431.03;;;10.66;87.58
77799;BME280;66989;50.426;15.352;2023-03-24T03:05:30;97419.38;;;10.68;87.91
77799;BME280;66989;50.426;15.352;2023-03-24T03:08:01;97427.16;;;10.70;87.48
77799;BME280;66989;50.426;15.352;2023-03-24T03:10:34;97435.09;;;10.70;87.69
77799;BME280;66989;50.426;15.352;2023-03-24T03:13:01;97424.53;;;10.70;87.69
77799;BME280;66989;50.426;15.352;2023-03-24T03:15:34;97431.47;;;10.71;87.91
77799;BME280;66989;50.426;15.352;2023-03-24T03:18:15;97432.84;;;10.55;88.32
77799;BME280;66989;50.426;15.352;2023-03-24T03:20:46;97425.34;;;10.51;88.37
77799;BME280;66989;50.426;15.352;2023-03-24T03:23:16;97421.44;;;10.45;88.70
77799;BME280;66989;50.426;15.352;2023-03-24T03:25:47;97427.00;;;10.52;88.83
77799;BME280;66989;50.426;15.352;2023-03-24T03:28:18;97421.00;;;10.40;89.12
77799;BME280;66989;50.426;15.352;2023-03-24T03:30:52;97421.38;;;10.35;89.35
77799;BME280;66989;50.426;15.352;2023-03-24T03:33:24;97423.44;;;10.32;88.96
77799;BME280;66989;50.426;15.352;2023-03-24T03:36:05;97419.78;;;10.44;88.88
77799;BME280;66989;50.426;15.352;2023-03-24T03:38:46;97435.25;;;10.28;89.42
77799;BME280;66989;50.426;15.352;2023-03-24T03:41:12;97438.47;;;10.41;89.35
77799;BME280;66989;50.426;15.352;2023-03-24T03:43:40;97430.47;;;10.43;88.99
77799;BME280;66989;50.426;15.352;2023-03-24T03:46:07;97430.31;;;10.44;89.21
77799;BME280;66989;50.426;15.352;2023-03-24T03:48:33;97435.03;;;10.41;89.67
77799;BME280;66989;50.426;15.352;2023-03-24T03:50:59;97424.63;;;10.39;89.96
77799;BME280;66989;50.426;15.352;2023-03-24T03:56:07;97417.22;;;10.33;90.33
77799;BME280;66989;50.426;15.352;2023-03-24T03:58:33;97419.72;;;10.34;90.34
77799;BME280;66989;50.426;15.352;2023-03-24T04:01:00;97413.38;;;10.37;90.60
77799;BME280;66989;50.426;15.352;2023-03-24T04:06:40;97415.06;;;10.38;90.54
77799;BME280;66989;50.426;15.352;2023-03-24T04:14:40;97409.94;;;10.46;90.38
77799;BME280;66989;50.426;15.352;2023-03-24T04:20:21;97408.34;;;10.34;90.51
77799;BME280;66989;50.426;15.352;2023-03-24T04:23:05;97402.81;;;10.27;91.42
77799;BME280;66989;50.426;15.352;2023-03-24T04:28:44;97409.59;;;10.30;91.09
77799;BME280;66989;50.426;15.352;2023-03-24T04:31:30;97408.91;;;10.28;91.14
77799;BME280;66989;50.426;15.352;2023-03-24T04:34:03;97402.81;;;10.27;90.94
77799;BME280;66989;50.426;15.352;2023-03-24T04:39:13;97393.97;;;10.38;91.11
77799;BME280;66989;50.426;15.352;2023-03-24T04:41:41;97405.56;;;10.26;91.34
77799;BME280;66989;50.426;15.352;2023-03-24T04:44:08;97405.84;;;10.23;91.56
77799;BME280;66989;50.426;15.352;2023-03-24T04:46:35;97395.97;;;10.25;91.90
77799;BME280;66989;50.426;15.352;2023-03-24T04:49:02;97407.28;;;10.37;91.60
77799;BME280;66989;50.426;15.352;2023-03-24T04:51:29;97403.69;;;10.38;91.54
77799;BME280;66989;50.426;15.352;2023-03-24T04:53:55;97405.19;;;10.40;91.64
77799;BME280;66989;50.426;15.352;2023-03-24T04:56:43;97403.25;;;10.42;91.27
77799;BME280;66989;50.426;15.352;2023-03-24T04:59:13;97405.88;;;10.42;90.91
77799;BME280;66989;50.426;15.352;2023-03-24T05:01:39;97409.25;;;10.44;91.30
77799;BME280;66989;50.426;15.352;2023-03-24T05:04:06;97404.81;;;10.45;90.95
77799;BME280;66989;50.426;15.352;2023-03-24T05:06:33;97407.28;;;10.46;91.44
77799;BME280;66989;50.426;15.352;2023-03-24T05:08:59;97406.19;;;10.49;91.37
77799;BME280;66989;50.426;15.352;2023-03-24T05:11:25;97402.31;;;10.43;91.62
77799;BME280;66989;50.426;15.352;2023-03-24T05:13:51;97395.63;;;10.39;92.01
77799;BME280;66989;50.426;15.352;2023-03-24T05:16:17;97404.94;;;10.43;91.63
77799;BME280;66989;50.426;15.352;2023-03-24T05:18:42;97395.38;;;10.52;91.60
77799;BME280;66989;50.426;15.352;2023-03-24T05:21:11;97388.72;;;10.57;91.71
77799;BME280;66989;50.426;15.352;2023-03-24T05:23:38;97392.75;;;10.61;91.45
77799;BME280;66989;50.426;15.352;2023-03-24T05:26:03;97400.38;;;10.65;91.81
77799;BME280;66989;50.426;15.352;2023-03-24T05:28:29;97397.59;;;10.66;91.29
77799;BME280;66989;50.426;15.352;2023-03-24T05:30:55;97400.09;;;10.68;91.10
77799;BME280;66989;50.426;15.352;2023-03-24T05:33:21;97400.81;;;10.70;91.26
77799;BME280;66989;50.426;15.352;2023-03-24T05:35:46;97396.06;;;10.73;90.77
77799;BME280;66989;50.426;15.352;2023-03-24T05:38:12;97393.31;;;10.75;90.44
77799;BME280;66989;50.426;15.352;2023-03-24T05:40:37;97398.19;;;10.79;90.77
77799;BME280;66989;50.426;15.352;2023-03-24T05:43:03;97400.81;;;10.79;91.15
77799;BME280;66989;50.426;15.352;2023-03-24T05:45:29;97400.94;;;10.78;90.53
77799;BME280;66989;50.426;15.352;2023-03-24T05:47:55;97400.09;;;10.77;90.48
77799;BME280;66989;50.426;15.352;2023-03-24T05:50:21;97405.38;;;10.77;91.04
77799;BME280;66989;50.426;15.352;2023-03-24T05:52:48;97404.53;;;10.77;90.52
77799;BME280;66989;50.426;15.352;2023-03-24T05:55:13;97404.53;;;10.77;90.54
77799;BME280;66989;50.426;15.352;2023-03-24T05:57:40;97400.94;;;10.78;90.32
77799;BME280;66989;50.426;15.352;2023-03-24T06:00:06;97394.28;;;10.83;90.69
77799;BME280;66989;50.426;15.352;2023-03-24T06:02:40;97385.41;;;10.75;90.95
77799;BME280;66989;50.426;15.352;2023-03-24T06:05:06;97385.97;;;10.69;91.63
77799;BME280;66989;50.426;15.352;2023-03-24T06:07:32;97384.16;;;10.69;91.77
77799;BME280;66989;50.426;15.352;2023-03-24T06:09:58;97388.47;;;10.70;91.26
77799;BME280;66989;50.426;15.352;2023-03-24T06:12:28;97376.25;;;10.69;91.43
77799;BME280;66989;50.426;15.352;2023-03-24T06:14:55;97364.88;;;10.69;91.81
77799;BME280;66989;50.426;15.352;2023-03-24T06:17:21;97368.34;;;10.69;91.94
77799;BME280;66989;50.426;15.352;2023-03-24T06:19:48;97361.38;;;10.68;92.17
77799;BME280;66989;50.426;15.352;2023-03-24T06:22:18;97360.44;;;10.69;91.99
77799;BME280;66989;50.426;15.352;2023-03-24T06:24:44;97379.41;;;10.73;92.10
77799;BME280;66989;50.426;15.352;2023-03-24T06:27:11;97378.19;;;10.77;91.66
77799;BME280;66989;50.426;15.352;2023-03-24T06:29:39;97373.31;;;10.82;91.63
77799;BME280;66989;50.426;15.352;2023-03-24T06:32:08;97359.56;;;10.88;91.38
77799;BME280;66989;50.426;15.352;2023-03-24T06:34:33;97359.72;;;10.96;91.82
77799;BME280;66989;50.426;15.352;2023-03-24T06:36:59;97359.41;;;10.99;90.66
77799;BME280;66989;50.426;15.352;2023-03-24T06:39:24;97360.97;;;11.02;90.76
77799;BME280;66989;50.426;15.352;2023-03-24T06:41:52;97363.75;;;11.00;91.04
77799;BME280;66989;50.426;15.352;2023-03-24T06:44:17;97365.41;;;11.01;90.90
77799;BME280;66989;50.426;15.352;2023-03-24T06:46:42;97361.78;;;11.02;91.38
77799;BME280;66989;50.426;15.352;2023-03-24T06:49:10;97367.88;;;11.03;91.04
77799;BME280;66989;50.426;15.352;2023-03-24T06:51:35;97371.09;;;11.06;90.99
77799;BME280;66989;50.426;15.352;2023-03-24T06:54:01;97367.06;;;11.12;90.66
77799;BME280;66989;50.426;15.352;2023-03-24T06:56:27;97369.28;;;11.17;90.27
77799;BME280;66989;50.426;15.352;2023-03-24T06:58:59;97368.28;;;11.27;90.42
77799;BME280;66989;50.426;15.352;2023-03-24T07:01:27;97364.91;;;11.35;89.00
77799;BME280;66989;50.426;15.352;2023-03-24T07:03:53;97365.31;;;11.40;88.71
77799;BME280;66989;50.426;15.352;2023-03-24T07:06:20;97358.63;;;11.46;88.90
77799;BME280;66989;50.426;15.352;2023-03-24T07:08:47;97357.25;;;11.51;88.71
77799;BME280;66989;50.426;15.352;2023-03-24T07:11:13;97359.31;;;11.57;88.63
77799;BME280;66989;50.426;15.352;2023-03-24T07:13:39;97358.47;;;11.57;88.62
77799;BME280;66989;50.426;15.352;2023-03-24T07:16:04;97346.09;;;11.57;88.85
77799;BME280;66989;50.426;15.352;2023-03-24T07:18:30;97350.78;;;11.63;88.73
77799;BME280;66989;50.426;15.352;2023-03-24T07:20:55;97353.53;;;11.72;88.94
77799;BME280;66989;50.426;15.352;2023-03-24T07:23:22;97350.47;;;11.76;89.13
77799;BME280;66989;50.426;15.352;2023-03-24T07:25:49;97354.31;;;11.82;89.40
77799;BME280;66989;50.426;15.352;2023-03-24T07:28:14;97354.88;;;11.85;89.17
77799;BME280;66989;50.426;15.352;2023-03-24T07:30:40;97351.19;;;11.96;89.60
77799;BME280;66989;50.426;15.352;2023-03-24T07:33:07;97346.41;;;12.09;89.28
77799;BME280;66989;50.426;15.352;2023-03-24T07:35:35;97342.53;;;12.31;87.95
77799;BME280;66989;50.426;15.352;2023-03-24T07:38:01;97340.50;;;12.43;87.30
77799;BME280;66989;50.426;15.352;2023-03-24T07:40:27;97340.06;;;12.48;86.92
77799;BME280;66989;50.426;15.352;2023-03-24T07:43:01;97333.66;;;12.50;86.28
77799;BME280;66989;50.426;15.352;2023-03-24T07:45:29;97334.09;;;12.63;86.23
77799;BME280;66989;50.426;15.352;2023-03-24T07:47:55;97320.94;;;12.72;85.78
77799;BME280;66989;50.426;15.352;2023-03-24T07:50:26;97324.25;;;12.74;85.16
77799;BME280;66989;50.426;15.352;2023-03-24T07:52:51;97331.97;;;12.67;84.94
77799;BME280;66989;50.426;15.352;2023-03-24T07:55:17;97321.69;;;12.82;85.06
77799;BME280;66989;50.426;15.352;2023-03-24T07:57:46;97319.41;;;12.87;84.82
77799;BME280;66989;50.426;15.352;2023-03-24T08:00:13;97323.81;;;12.96;84.14
77799;BME280;66989;50.426;15.352;2023-03-24T08:02:48;97317.88;;;13.02;83.95
77799;BME280;66989;50.426;15.352;2023-03-24T08:05:14;97321.75;;;13.16;83.59
77799;BME280;66989;50.426;15.352;2023-03-24T08:07:43;97326.81;;;13.27;83.49
77799;BME280;66989;50.426;15.352;2023-03-24T08:10:13;97315.38;;;13.27;83.83
77799;BME280;66989;50.426;15.352;2023-03-24T08:12:39;97326.31;;;13.24;83.82
77799;BME280;66989;50.426;15.352;2023-03-24T08:15:06;97313.59;;;13.27;84.06
77799;BME280;66989;50.426;15.352;2023-03-24T08:17:33;97313.09;;;13.32;82.88
77799;BME280;66989;50.426;15.352;2023-03-24T08:19:58;97309.25;;;13.26;83.63
77799;BME280;66989;50.426;15.352;2023-03-24T08:22:24;97304.56;;;13.38;83.22
77799;BME280;66989;50.426;15.352;2023-03-24T08:24:51;97305.16;;;13.32;83.00
77799;BME280;66989;50.426;15.352;2023-03-24T08:27:17;97309.97;;;13.36;82.69
77799;BME280;66989;50.426;15.352;2023-03-24T08:29:46;97313.09;;;13.32;83.57
77799;BME280;66989;50.426;15.352;2023-03-24T08:32:11;97306.22;;;13.39;83.69
77799;BME280;66989;50.426;15.352;2023-03-24T08:34:37;97308.03;;;13.38;83.95
77799;BME280;66989;50.426;15.352;2023-03-24T08:37:02;97305.28;;;13.48;83.79
77799;BME280;66989;50.426;15.352;2023-03-24T08:39:28;97314.41;;;13.54;83.40
77799;BME280;66989;50.426;15.352;2023-03-24T08:41:56;97309.09;;;13.54;83.83
77799;BME280;66989;50.426;15.352;2023-03-24T08:44:22;97307.94;;;13.56;83.65
77799;BME280;66989;50.426;15.352;2023-03-24T08:46:48;97302.97;;;13.53;83.70
77799;BME280;66989;50.426;15.352;2023-03-24T08:49:13;97302.28;;;13.51;84.10
77799;BME280;66989;50.426;15.352;2023-03-24T08:51:39;97301.78;;;13.47;84.65
77799;BME280;66989;50.426;15.352;2023-03-24T08:54:04;97299.50;;;13.53;83.62
77799;BME280;66989;50.426;15.352;2023-03-24T08:56:30;97297.31;;;13.48;84.65
77799;BME280;66989;50.426;15.352;2023-03-24T08:58:55;97293.97;;;13.46;84.18
77799;BME280;66989;50.426;15.352;2023-03-24T09:01:22;97292.34;;;13.45;83.69
77799;BME280;66989;50.426;15.352;2023-03-24T09:03:48;97294.22;;;13.53;84.88
77799;BME280;66989;50.426;15.352;2023-03-24T09:06:14;97293.88;;;13.56;84.23
77799;BME280;66989;50.426;15.352;2023-03-24T09:08:40;97288.94;;;13.61;83.32
77799;BME280;66989;50.426;15.352;2023-03-24T09:11:05;97288.97;;;13.69;82.79
77799;BME280;66989;50.426;15.352;2023-03-24T09:13:31;97276.25;;;13.81;82.30
77799;BME280;66989;50.426;15.352;2023-03-24T09:16:00;97273.69;;;13.97;82.61
77799;BME280;66989;50.426;15.352;2023-03-24T09:18:25;97270.75;;;14.16;81.14
77799;BME280;66989;50.426;15.352;2023-03-24T09:20:51;97263.34;;;14.36;80.38
77799;BME280;66989;50.426;15.352;2023-03-24T09:23:17;97264.19;;;14.53;80.36
77799;BME280;66989;50.426;15.352;2023-03-24T09:25:43;97263.00;;;14.64;78.20
77799;BME280;66989;50.426;15.352;2023-03-24T09:28:09;97256.22;;;14.69;79.18
77799;BME280;66989;50.426;15.352;2023-03-24T09:30:35;97254.22;;;14.71;78.84
77799;BME280;66989;50.426;15.352;2023-03-24T09:33:00;97248.06;;;14.71;78.26
77799;BME280;66989;50.426;15.352;2023-03-24T09:35:26;97239.44;;;14.85;77.18
77799;BME280;66989;50.426;15.352;2023-03-24T09:37:52;97245.53;;;15.02;76.89
77799;BME280;66989;50.426;15.352;2023-03-24T09:40:21;97235.94;;;15.09;77.56
77799;BME280;66989;50.426;15.352;2023-03-24T09:42:53;97228.75;;;15.34;76.18
77799;BME280;66989;50.426;15.352;2023-03-24T09:45:21;97233.50;;;15.47;75.93
77799;BME280;66989;50.426;15.352;2023-03-24T09:47:59;97232.59;;;15.71;74.64
77799;BME280;66989;50.426;15.352;2023-03-24T09:50:32;97229.03;;;15.87;74.11
77799;BME280;66989;50.426;15.352;2023-03-24T09:53:03;97223.13;;;15.99;73.84
77799;BME280;66989;50.426;15.352;2023-03-24T09:55:31;97229.66;;;15.89;74.06
77799;BME280;66989;50.426;15.352;2023-03-24T09:58:02;97230.78;;;15.94;74.09
77799;BME280;66989;50.426;15.352;2023-03-24T10:00:33;97219.22;;;15.87;74.48
77799;BME280;66989;50.426;15.352;2023-03-24T10:03:18;97224.44;;;16.03;74.13
77799;BME280;66989;50.426;15.352;2023-03-24T10:08:35;97205.22;;;16.62;71.92
77799;BME280;66989;50.426;15.352;2023-03-24T10:11:06;97201.56;;;17.30;69.46
77799;BME280;66989;50.426;15.352;2023-03-24T10:16:19;97184.38;;;17.99;61.68
77799;BME280;66989;50.426;15.352;2023-03-24T10:19:02;97178.72;;;19.01;57.99
77799;BME280;66989;50.426;15.352;2023-03-24T10:21:34;97169.69;;;19.84;55.31
77799;BME280;66989;50.426;15.352;2023-03-24T10:24:05;97173.44;;;19.62;55.61
77799;BME280;66989;50.426;15.352;2023-03-24T10:29:35;97181.81;;;18.55;59.44
77799;BME280;66989;50.426;15.352;2023-03-24T10:32:24;97185.88;;;18.72;61.26
77799;BME280;66989;50.426;15.352;2023-03-24T10:34:58;97188.41;;;18.59;61.13
77799;BME280;66989;50.426;15.352;2023-03-24T10:37:32;97181.69;;;17.99;61.04
77799;BME280;66989;50.426;15.352;2023-03-24T10:39:59;97185.25;;;17.55;62.33
77799;BME280;66989;50.426;15.352;2023-03-24T10:42:29;97185.47;;;17.68;63.43
77799;BME280;66989;50.426;15.352;2023-03-24T10:44:55;97183.06;;;17.58;64.26
77799;BME280;66989;50.426;15.352;2023-03-24T10:47:24;97185.31;;;17.76;64.40
77799;BME280;66989;50.426;15.352;2023-03-24T10:50:01;97178.53;;;17.59;64.74
77799;BME280;66989;50.426;15.352;2023-03-24T10:52:37;97179.09;;;17.40;65.59
77799;BME280;66989;50.426;15.352;2023-03-24T10:55:04;97173.06;;;17.46;65.77
77799;BME280;66989;50.426;15.352;2023-03-24T10:57:31;97180.41;;;17.44;66.09
77799;BME280;66989;50.426;15.352;2023-03-24T11:00:06;97172.53;;;17.35;66.00
77799;BME280;66989;50.426;15.352;2023-03-24T11:02:43;97171.03;;;17.18;64.62
77799;BME280;66989;50.426;15.352;2023-03-24T11:05:14;97182.38;;;17.20;63.58
77799;BME280;66989;50.426;15.352;2023-03-24T11:07:47;97185.19;;;17.19;63.24
77799;BME280;66989;50.426;15.352;2023-03-24T11:10:14;97183.72;;;17.31;63.15
77799;BME280;66989;50.426;15.352;2023-03-24T11:12:57;97187.50;;;17.36;63.36
77799;BME280;66989;50.426;15.352;2023-03-24T11:15:37;97180.13;;;17.24;63.08
77799;BME280;66989;50.426;15.352;2023-03-24T11:18:17;97180.31;;;17.07;63.77
77799;BME280;66989;50.426;15.352;2023-03-24T11:20:43;97182.50;;;17.04;63.83
77799;BME280;66989;50.426;15.352;2023-03-24T11:23:31;97178.75;;;16.83;63.49
77799;BME280;66989;50.426;15.352;2023-03-24T11:28:28;97172.47;;;16.62;65.07
77799;BME280;66989;50.426;15.352;2023-03-24T11:31:04;97170.44;;;16.49;65.32
77799;BME280;66989;50.426;15.352;2023-03-24T11:33:48;97169.72;;;16.47;65.35
77799;BME280;66989;50.426;15.352;2023-03-24T11:44:49;97166.59;;;16.28;66.01
77799;BME280;66989;50.426;15.352;2023-03-24T11:47:28;97164.75;;;16.29;66.96
77799;BME280;66989;50.426;15.352;2023-03-24T11:52:30;97164.03;;;16.35;67.06
77799;BME280;66989;50.426;15.352;2023-03-24T11:54:58;97150.47;;;16.45;67.04
77799;BME280;66989;50.426;15.352;2023-03-24T12:00:20;97148.19;;;16.79;65.74
77799;BME280;66989;50.426;15.352;2023-03-24T12:03:03;97153.13;;;16.82;65.10
77799;BME280;66989;50.426;15.352;2023-03-24T12:05:47;97148.47;;;16.84;62.87
77799;BME280;66989;50.426;15.352;2023-03-24T12:14:02;97149.03;;;17.09;62.73
77799;BME280;66989;50.426;15.352;2023-03-24T12:20:12;97146.19;;;17.98;61.17
77799;BME280;66989;50.426;15.352;2023-03-24T12:22:53;97150.19;;;18.30;59.26
77799;BME280;66989;50.426;15.352;2023-03-24T12:33:58;97150.53;;;18.70;57.03
77799;BME280;66989;50.426;15.352;2023-03-24T12:39:28;97148.88;;;18.48;58.24
77799;BME280;66989;50.426;15.352;2023-03-24T12:42:11;97148.03;;;18.19;58.35
77799;BME280;66989;50.426;15.352;2023-03-24T12:55:32;97146.50;;;17.88;59.64
77799;BME280;66989;50.426;15.352;2023-03-24T12:58:10;97144.59;;;17.82;59.66
77799;BME280;66989;50.426;15.352;2023-03-24T13:00:42;97128.16;;;17.79;58.49
77799;BME280;66989;50.426;15.352;2023-03-24T13:03:20;97139.34;;;17.89;59.31
77799;BME280;66989;50.426;15.352;2023-03-24T13:05:53;97139.47;;;18.02;57.71
77799;BME280;66989;50.426;15.352;2023-03-24T13:08:22;97132.34;;;18.09;57.65
77799;BME280;66989;50.426;15.352;2023-03-24T13:10:56;97139.06;;;17.84;58.05
77799;BME280;66989;50.426;15.352;2023-03-24T13:13:32;97123.53;;;17.87;56.93
77799;BME280;66989;50.426;15.352;2023-03-24T13:16:07;97142.88;;;17.60;58.49
77799;BME280;66989;50.426;15.352;2023-03-24T13:21:03;97135.56;;;17.32;59.49
77799;BME280;66989;50.426;15.352;2023-03-24T13:23:56;97141.75;;;17.18;59.54
77799;BME280;66989;50.426;15.352;2023-03-24T13:37:54;97138.53;;;17.08;60.01
77799;BME280;66989;50.426;15.352;2023-03-24T13:40:25;97147.53;;;17.07;60.36
77799;BME280;66989;50.426;15.352;2023-03-24T13:42:56;97146.25;;;17.03;61.41
77799;BME280;66989;50.426;15.352;2023-03-24T13:45:45;97155.31;;;16.94;60.43
77799;BME280;66989;50.426;15.352;2023-03-24T13:50:40;97158.16;;;16.77;61.58
77799;BME280;66989;50.426;15.352;2023-03-24T13:53:16;97155.47;;;16.63;61.32
77799;BME280;66989;50.426;15.352;2023-03-24T13:55:50;97157.41;;;16.54;62.36
77799;BME280;66989;50.426;15.352;2023-03-24T13:58:24;97159.81;;;16.41;62.01
77799;BME280;66989;50.426;15.352;2023-03-24T14:03:37;97161.44;;;16.27;62.70
77799;BME280;66989;50.426;15.352;2023-03-24T14:06:04;97151.34;;;16.22;63.43
77799;BME280;66989;50.426;15.352;2023-03-24T14:08:42;97141.34;;;16.24;63.20
77799;BME280;66989;50.426;15.352;2023-03-24T14:14:09;97148.91;;;16.13;64.34
77799;BME280;66989;50.426;15.352;2023-03-24T14:17:13;97143.91;;;16.18;63.90
77799;BME280;66989;50.426;15.352;2023-03-24T14:19:44;97133.44;;;16.16;63.87
77799;BME280;66989;50.426;15.352;2023-03-24T14:22:34;97127.41;;;16.22;64.14
77799;BME280;66989;50.426;15.352;2023-03-24T14:27:43;97138.97;;;16.29;63.54
77799;BME280;66989;50.426;15.352;2023-03-24T14:32:46;97138.03;;;16.22;64.70
77799;BME280;66989;50.426;15.352;2023-03-24T14:35:33;97134.78;;;16.12;64.74
77799;BME280;66989;50.426;15.352;2023-03-24T14:38:15;97131.03;;;16.06;64.83
77799;BME280;66989;50.426;15.352;2023-03-24T14:40:49;97126.28;;;15.94;65.52
77799;BME280;66989;50.426;15.352;2023-03-24T14:43:27;97126.34;;;15.86;65.15
77799;BME280;66989;50.426;15.352;2023-03-24T14:48:57;97110.13;;;15.95;65.07
77799;BME280;66989;50.426;15.352;2023-03-24T14:56:53;97095.63;;;16.06;64.59
77799;BME280;66989;50.426;15.352;2023-03-24T15:01:50;97099.59;;;16.25;64.50
77799;BME280;66989;50.426;15.352;2023-03-24T15:04:20;97099.88;;;16.30;64.80
77799;BME280;66989;50.426;15.352;2023-03-24T15:06:47;97099.06;;;16.29;65.25
77799;BME280;66989;50.426;15.352;2023-03-24T15:09:17;97093.28;;;16.26;63.59
77799;BME280;66989;50.426;15.352;2023-03-24T15:11:44;97104.44;;;16.21;63.78
77799;BME280;66989;50.426;15.352;2023-03-24T15:14:25;97103.38;;;16.30;62.62
77799;BME280;66989;50.426;15.352;2023-03-24T15:16:57;97108.94;;;16.21;62.93
77799;BME280;66989;50.426;15.352;2023-03-24T15:19:26;97096.75;;;16.26;63.46
77799;BME280;66989;50.426;15.352;2023-03-24T15:22:11;97101.63;;;16.23;63.74
77799;BME280;66989;50.426;15.352;2023-03-24T15:24:42;97101.09;;;16.27;63.32
77799;BME280;66989;50.426;15.352;2023-03-24T15:27:24;97100.44;;;16.25;63.38